sensor_id;sensor_type;location;lat;lon;timestamp;temperature;humidity
22544;DHT22;11438;52.044;8.716;2023-09-30T00:00:17;18.20;99.20
22544;DHT22;11438;52.044;8.716;2023-09-30T00:02:42;18.20;99.30
22544;DHT22;11438;52.044;8.716;2023-09-30T00:05:08;18.20;99.40
22544;DHT22;11438;52.044;8.716;2023-09-30T00:07:34;18.10;99.40
22544;DHT22;11438;52.044;8.716;2023-09-30T00:10:00;18.10;99.50
22544;DHT22;11438;52.044;8.716;2023-09-30T00:12:26;18.10;99.60
22544;DHT22;11438;52.044;8.716;2023-09-30T00:14:52;18.10;99.60
22544;DHT22;11438;52.044;8.716;2023-09-30T00:17:17;18.10;99.70
22544;DHT22;11438;52.044;8.716;2023-09-30T00:19:43;18.00;99.70
22544;DHT22;11438;52.044;8.716;2023-09-30T00:22:10;18.00;99.70
22544;DHT22;11438;52.044;8.716;2023-09-30T00:24:35;18.00;99.80
22544;DHT22;11438;52.044;8.716;2023-09-30T00:27:01;18.00;99.80
22544;DHT22;11438;52.044;8.716;2023-09-30T00:29:26;17.90;99.80
22544;DHT22;11438;52.044;8.716;2023-09-30T00:31:52;17.90;99.80
22544;DHT22;11438;52.044;8.716;2023-09-30T00:34:17;17.90;99.90
22544;DHT22;11438;52.044;8.716;2023-09-30T00:36:43;17.90;99.90
22544;DHT22;11438;52.044;8.716;2023-09-30T00:39:08;17.90;99.90
22544;DHT22;11438;52.044;8.716;2023-09-30T00:41:35;17.90;99.90
22544;DHT22;11438;52.044;8.716;2023-09-30T00:44:01;17.80;99.90
22544;DHT22;11438;52.044;8.716;2023-09-30T00:46:30;17.80;99.90
22544;DHT22;11438;52.044;8.716;2023-09-30T00:48:57;17.80;99.90
22544;DHT22;11438;52.044;8.716;2023-09-30T00:51:24;17.70;99.90
22544;DHT22;11438;52.044;8.716;2023-09-30T00:53:56;17.80;99.90
22544;DHT22;11438;52.044;8.716;2023-09-30T00:56:30;17.80;99.90
22544;DHT22;11438;52.044;8.716;2023-09-30T00:58:56;17.80;99.90
22544;DHT22;11438;52.044;8.716;2023-09-30T01:01:21;17.70;99.90
22544;DHT22;11438;52.044;8.716;2023-09-30T01:03:47;17.70;99.90
22544;DHT22;11438;52.044;8.716;2023-09-30T01:06:13;17.70;99.90
22544;DHT22;11438;52.044;8.716;2023-09-30T01:08:39;17.60;99.90
22544;DHT22;11438;52.044;8.716;2023-09-30T01:11:05;17.60;99.90
22544;DHT22;11438;52.044;8.716;2023-09-30T01:13:35;17.60;99.90
22544;DHT22;11438;52.044;8.716;2023-09-30T01:18:31;17.60;99.90
22544;DHT22;11438;52.044;8.716;2023-09-30T01:20:59;17.60;99.90
22544;DHT22;11438;52.044;8.716;2023-09-30T01:23:27;17.60;99.90
22544;DHT22;11438;52.044;8.716;2023-09-30T01:25:53;17.50;99.90
22544;DHT22;11438;52.044;8.716;2023-09-30T01:28:19;17.50;99.90
22544;DHT22;11438;52.044;8.716;2023-09-30T01:30:44;17.50;99.90
22544;DHT22;11438;52.044;8.716;2023-09-30T01:33:10;17.50;99.90
22544;DHT22;11438;52.044;8.716;2023-09-30T01:35:36;17.40;99.90
22544;DHT22;11438;52.044;8.716;2023-09-30T01:38:01;17.50;99.90
22544;DHT22;11438;52.044;8.716;2023-09-30T01:40:27;17.50;99.90
22544;DHT22;11438;52.044;8.716;2023-09-30T01:42:52;17.50;99.90
22544;DHT22;11438;52.044;8.716;2023-09-30T01:45:18;17.40;99.90
22544;DHT22;11438;52.044;8.716;2023-09-30T01:47:44;17.50;99.90
22544;DHT22;11438;52.044;8.716;2023-09-30T01:50:09;17.50;99.90
22544;DHT22;11438;52.044;8.716;2023-09-30T01:52:35;17.40;99.90
22544;DHT22;11438;52.044;8.716;2023-09-30T01:55:01;17.40;99.90
22544;DHT22;11438;52.044;8.716;2023-09-30T01:57:26;17.50;99.90
22544;DHT22;11438;52.044;8.716;2023-09-30T01:59:52;17.40;99.90
22544;DHT22;11438;52.044;8.716;2023-09-30T02:02:17;17.40;99.90
22544;DHT22;11438;52.044;8.716;2023-09-30T02:04:44;17.40;99.90
22544;DHT22;11438;52.044;8.716;2023-09-30T02:07:09;17.40;99.90
22544;DHT22;11438;52.044;8.716;2023-09-30T02:09:35;17.40;99.90
22544;DHT22;11438;52.044;8.716;2023-09-30T02:12:01;17.40;99.90
22544;DHT22;11438;52.044;8.716;2023-09-30T02:14:27;17.40;99.90
22544;DHT22;11438;52.044;8.716;2023-09-30T02:16:53;17.40;99.90
22544;DHT22;11438;52.044;8.716;2023-09-30T02:19:19;17.40;99.90
22544;DHT22;11438;52.044;8.716;2023-09-30T02:21:45;17.40;99.90
22544;DHT22;11438;52.044;8.716;2023-09-30T02:24:10;17.40;99.90
22544;DHT22;11438;52.044;8.716;2023-09-30T02:26:36;17.40;99.90
22544;DHT22;11438;52.044;8.716;2023-09-30T02:29:04;17.40;99.90
22544;DHT22;11438;52.044;8.716;2023-09-30T02:31:29;17.40;99.90
22544;DHT22;11438;52.044;8.716;2023-09-30T02:33:55;17.40;99.90
22544;DHT22;11438;52.044;8.716;2023-09-30T02:36:20;17.40;99.90
22544;DHT22;11438;52.044;8.716;2023-09-30T02:38:46;17.40;99.90
22544;DHT22;11438;52.044;8.716;2023-09-30T02:41:11;17.30;99.90
22544;DHT22;11438;52.044;8.716;2023-09-30T02:43:37;17.30;99.90
22544;DHT22;11438;52.044;8.716;2023-09-30T02:46:03;17.40;99.90
22544;DHT22;11438;52.044;8.716;2023-09-30T02:48:29;17.30;99.90
22544;DHT22;11438;52.044;8.716;2023-09-30T02:50:55;17.30;99.90
22544;DHT22;11438;52.044;8.716;2023-09-30T02:53:20;17.30;99.90
22544;DHT22;11438;52.044;8.716;2023-09-30T02:55:46;17.30;99.90
22544;DHT22;11438;52.044;8.716;2023-09-30T02:58:11;17.30;99.90
22544;DHT22;11438;52.044;8.716;2023-09-30T03:00:37;17.30;99.90
22544;DHT22;11438;52.044;8.716;2023-09-30T03:03:03;17.30;99.90
22544;DHT22;11438;52.044;8.716;2023-09-30T03:05:29;17.30;99.90
22544;DHT22;11438;52.044;8.716;2023-09-30T03:07:59;17.30;99.90
22544;DHT22;11438;52.044;8.716;2023-09-30T03:10:25;17.20;99.90
22544;DHT22;11438;52.044;8.716;2023-09-30T03:12:52;17.20;99.90
22544;DHT22;11438;52.044;8.716;2023-09-30T03:15:18;17.20;99.90
22544;DHT22;11438;52.044;8.716;2023-09-30T03:17:44;17.20;99.90
22544;DHT22;11438;52.044;8.716;2023-09-30T03:20:10;17.20;99.90
22544;DHT22;11438;52.044;8.716;2023-09-30T03:22:41;17.20;99.90
22544;DHT22;11438;52.044;8.716;2023-09-30T03:25:09;17.20;99.90
22544;DHT22;11438;52.044;8.716;2023-09-30T03:27:35;17.10;99.90
22544;DHT22;11438;52.044;8.716;2023-09-30T03:30:04;17.10;99.90
22544;DHT22;11438;52.044;8.716;2023-09-30T03:32:31;17.10;99.90
22544;DHT22;11438;52.044;8.716;2023-09-30T03:34:58;17.10;99.90
22544;DHT22;11438;52.044;8.716;2023-09-30T03:37:26;17.10;99.90
22544;DHT22;11438;52.044;8.716;2023-09-30T03:39:56;17.00;99.90
22544;DHT22;11438;52.044;8.716;2023-09-30T03:42:22;17.00;99.90
22544;DHT22;11438;52.044;8.716;2023-09-30T03:44:48;17.00;99.90
22544;DHT22;11438;52.044;8.716;2023-09-30T03:47:18;17.00;99.90
22544;DHT22;11438;52.044;8.716;2023-09-30T03:49:43;17.00;99.90
22544;DHT22;11438;52.044;8.716;2023-09-30T03:52:12;17.00;99.90
22544;DHT22;11438;52.044;8.716;2023-09-30T03:54:39;16.90;99.90
22544;DHT22;11438;52.044;8.716;2023-09-30T03:57:06;16.90;99.90
22544;DHT22;11438;52.044;8.716;2023-09-30T03:59:32;16.90;99.90
22544;DHT22;11438;52.044;8.716;2023-09-30T04:01:57;16.90;99.90
22544;DHT22;11438;52.044;8.716;2023-09-30T04:04:23;16.90;99.90
22544;DHT22;11438;52.044;8.716;2023-09-30T04:06:49;16.90;99.90
22544;DHT22;11438;52.044;8.716;2023-09-30T04:09:17;16.90;99.90
22544;DHT22;11438;52.044;8.716;2023-09-30T04:11:42;16.90;99.90
22544;DHT22;11438;52.044;8.716;2023-09-30T04:14:09;16.90;99.90
22544;DHT22;11438;52.044;8.716;2023-09-30T04:16:35;16.80;99.90
22544;DHT22;11438;52.044;8.716;2023-09-30T04:19:02;16.80;99.90
22544;DHT22;11438;52.044;8.716;2023-09-30T04:21:28;16.80;99.90
22544;DHT22;11438;52.044;8.716;2023-09-30T04:23:55;16.80;99.90
22544;DHT22;11438;52.044;8.716;2023-09-30T04:26:22;16.80;99.90
22544;DHT22;11438;52.044;8.716;2023-09-30T04:28:47;16.80;99.90
22544;DHT22;11438;52.044;8.716;2023-09-30T04:31:13;16.80;99.90
22544;DHT22;11438;52.044;8.716;2023-09-30T04:33:39;16.80;99.90
22544;DHT22;11438;52.044;8.716;2023-09-30T04:36:06;16.70;99.90
22544;DHT22;11438;52.044;8.716;2023-09-30T04:38:33;16.70;99.90
22544;DHT22;11438;52.044;8.716;2023-09-30T04:40:59;16.70;99.90
22544;DHT22;11438;52.044;8.716;2023-09-30T04:43:26;16.70;99.90
22544;DHT22;11438;52.044;8.716;2023-09-30T04:45:55;16.70;99.90
22544;DHT22;11438;52.044;8.716;2023-09-30T04:48:23;16.70;99.90
22544;DHT22;11438;52.044;8.716;2023-09-30T04:50:48;16.60;99.90
22544;DHT22;11438;52.044;8.716;2023-09-30T04:53:14;16.60;99.90
22544;DHT22;11438;52.044;8.716;2023-09-30T04:55:42;16.60;99.90
22544;DHT22;11438;52.044;8.716;2023-09-30T04:58:08;16.60;99.90
22544;DHT22;11438;52.044;8.716;2023-09-30T05:00:34;16.50;99.90
22544;DHT22;11438;52.044;8.716;2023-09-30T05:03:00;16.50;99.90
22544;DHT22;11438;52.044;8.716;2023-09-30T05:05:26;16.50;99.90
22544;DHT22;11438;52.044;8.716;2023-09-30T05:07:52;16.50;99.90
22544;DHT22;11438;52.044;8.716;2023-09-30T05:10:17;16.50;99.90
22544;DHT22;11438;52.044;8.716;2023-09-30T05:12:44;16.50;99.90
22544;DHT22;11438;52.044;8.716;2023-09-30T05:15:13;16.50;99.90
22544;DHT22;11438;52.044;8.716;2023-09-30T05:17:41;16.50;99.90
22544;DHT22;11438;52.044;8.716;2023-09-30T05:20:09;16.50;99.90
22544;DHT22;11438;52.044;8.716;2023-09-30T05:22:36;16.40;99.90
22544;DHT22;11438;52.044;8.716;2023-09-30T05:25:01;16.40;99.90
22544;DHT22;11438;52.044;8.716;2023-09-30T05:27:27;16.40;99.90
22544;DHT22;11438;52.044;8.716;2023-09-30T05:29:53;16.40;99.90
22544;DHT22;11438;52.044;8.716;2023-09-30T05:32:19;16.40;99.90
22544;DHT22;11438;52.044;8.716;2023-09-30T05:34:44;16.40;99.90
22544;DHT22;11438;52.044;8.716;2023-09-30T05:37:10;16.40;99.90
22544;DHT22;11438;52.044;8.716;2023-09-30T05:39:37;16.40;99.90
22544;DHT22;11438;52.044;8.716;2023-09-30T05:42:03;16.40;99.90
22544;DHT22;11438;52.044;8.716;2023-09-30T05:44:29;16.40;99.90
22544;DHT22;11438;52.044;8.716;2023-09-30T05:46:54;16.40;99.90
22544;DHT22;11438;52.044;8.716;2023-09-30T05:49:20;16.40;99.90
22544;DHT22;11438;52.044;8.716;2023-09-30T05:51:45;16.40;99.90
22544;DHT22;11438;52.044;8.716;2023-09-30T05:54:14;16.40;99.90
22544;DHT22;11438;52.044;8.716;2023-09-30T05:56:39;16.40;99.90
22544;DHT22;11438;52.044;8.716;2023-09-30T05:59:08;16.40;99.90
22544;DHT22;11438;52.044;8.716;2023-09-30T06:01:34;16.30;99.90
22544;DHT22;11438;52.044;8.716;2023-09-30T06:04:01;16.30;99.90
22544;DHT22;11438;52.044;8.716;2023-09-30T06:06:27;16.40;99.90
22544;DHT22;11438;52.044;8.716;2023-09-30T06:08:57;16.30;99.90
22544;DHT22;11438;52.044;8.716;2023-09-30T06:11:24;16.40;99.90
22544;DHT22;11438;52.044;8.716;2023-09-30T06:13:53;16.40;99.90
22544;DHT22;11438;52.044;8.716;2023-09-30T06:16:20;16.40;99.90
22544;DHT22;11438;52.044;8.716;2023-09-30T06:18:46;16.40;99.90
22544;DHT22;11438;52.044;8.716;2023-09-30T06:21:14;16.30;99.90
22544;DHT22;11438;52.044;8.716;2023-09-30T06:23:41;16.40;99.90
22544;DHT22;11438;52.044;8.716;2023-09-30T06:26:08;16.40;99.90
22544;DHT22;11438;52.044;8.716;2023-09-30T06:28:35;16.40;99.90
22544;DHT22;11438;52.044;8.716;2023-09-30T06:31:06;16.40;99.90
22544;DHT22;11438;52.044;8.716;2023-09-30T06:33:33;16.40;99.90
22544;DHT22;11438;52.044;8.716;2023-09-30T06:35:59;16.30;99.90
22544;DHT22;11438;52.044;8.716;2023-09-30T06:38:27;16.40;99.90
22544;DHT22;11438;52.044;8.716;2023-09-30T06:40:53;16.30;99.90
22544;DHT22;11438;52.044;8.716;2023-09-30T06:43:19;16.30;99.90
22544;DHT22;11438;52.044;8.716;2023-09-30T06:45:45;16.30;99.90
22544;DHT22;11438;52.044;8.716;2023-09-30T06:48:12;16.30;99.90
22544;DHT22;11438;52.044;8.716;2023-09-30T06:50:49;16.30;99.90
22544;DHT22;11438;52.044;8.716;2023-09-30T06:53:18;16.30;99.90
22544;DHT22;11438;52.044;8.716;2023-09-30T06:55:45;16.30;99.90
22544;DHT22;11438;52.044;8.716;2023-09-30T06:58:11;16.30;99.90
22544;DHT22;11438;52.044;8.716;2023-09-30T07:00:38;16.30;99.90
22544;DHT22;11438;52.044;8.716;2023-09-30T07:03:04;16.30;99.90
22544;DHT22;11438;52.044;8.716;2023-09-30T07:05:29;16.40;99.90
22544;DHT22;11438;52.044;8.716;2023-09-30T07:07:55;16.40;99.90
22544;DHT22;11438;52.044;8.716;2023-09-30T07:10:21;16.40;99.90
22544;DHT22;11438;52.044;8.716;2023-09-30T07:12:46;16.40;99.90
22544;DHT22;11438;52.044;8.716;2023-09-30T07:15:12;16.50;99.90
22544;DHT22;11438;52.044;8.716;2023-09-30T07:17:39;16.50;99.90
22544;DHT22;11438;52.044;8.716;2023-09-30T07:20:06;16.50;99.90
22544;DHT22;11438;52.044;8.716;2023-09-30T07:22:32;16.50;99.90
22544;DHT22;11438;52.044;8.716;2023-09-30T07:24:58;16.60;99.90
22544;DHT22;11438;52.044;8.716;2023-09-30T07:27:24;16.60;99.90
22544;DHT22;11438;52.044;8.716;2023-09-30T07:29:49;16.70;99.90
22544;DHT22;11438;52.044;8.716;2023-09-30T07:32:15;16.70;99.90
22544;DHT22;11438;52.044;8.716;2023-09-30T07:34:41;16.70;99.90
22544;DHT22;11438;52.044;8.716;2023-09-30T07:37:07;16.70;99.90
22544;DHT22;11438;52.044;8.716;2023-09-30T07:39:33;16.80;99.90
22544;DHT22;11438;52.044;8.716;2023-09-30T07:41:58;16.80;99.90
22544;DHT22;11438;52.044;8.716;2023-09-30T07:44:23;16.90;99.90
22544;DHT22;11438;52.044;8.716;2023-09-30T07:46:49;16.90;99.90
22544;DHT22;11438;52.044;8.716;2023-09-30T07:49:15;17.00;99.90
22544;DHT22;11438;52.044;8.716;2023-09-30T07:51:40;17.00;99.90
22544;DHT22;11438;52.044;8.716;2023-09-30T07:54:06;17.10;99.90
22544;DHT22;11438;52.044;8.716;2023-09-30T07:56:32;17.10;99.90
22544;DHT22;11438;52.044;8.716;2023-09-30T07:58:57;17.20;99.90
22544;DHT22;11438;52.044;8.716;2023-09-30T08:01:23;17.20;99.90
22544;DHT22;11438;52.044;8.716;2023-09-30T08:03:48;17.30;99.90
22544;DHT22;11438;52.044;8.716;2023-09-30T08:06:14;17.30;99.90
22544;DHT22;11438;52.044;8.716;2023-09-30T08:08:40;17.30;99.90
22544;DHT22;11438;52.044;8.716;2023-09-30T08:11:06;17.40;99.90
22544;DHT22;11438;52.044;8.716;2023-09-30T08:13:32;17.40;99.90
22544;DHT22;11438;52.044;8.716;2023-09-30T08:16:01;17.50;99.90
22544;DHT22;11438;52.044;8.716;2023-09-30T08:18:26;17.50;99.90
22544;DHT22;11438;52.044;8.716;2023-09-30T08:20:52;17.60;99.90
22544;DHT22;11438;52.044;8.716;2023-09-30T08:23:18;17.60;99.90
22544;DHT22;11438;52.044;8.716;2023-09-30T08:25:43;17.60;99.90
22544;DHT22;11438;52.044;8.716;2023-09-30T08:28:09;17.70;99.90
22544;DHT22;11438;52.044;8.716;2023-09-30T08:30:36;17.70;99.90
22544;DHT22;11438;52.044;8.716;2023-09-30T08:33:02;17.80;99.90
22544;DHT22;11438;52.044;8.716;2023-09-30T08:35:35;17.80;99.90
22544;DHT22;11438;52.044;8.716;2023-09-30T08:38:02;17.90;99.90
22544;DHT22;11438;52.044;8.716;2023-09-30T08:40:28;17.90;99.90
22544;DHT22;11438;52.044;8.716;2023-09-30T08:42:54;18.00;99.90
22544;DHT22;11438;52.044;8.716;2023-09-30T08:45:19;18.00;99.90
22544;DHT22;11438;52.044;8.716;2023-09-30T08:47:45;18.10;99.90
22544;DHT22;11438;52.044;8.716;2023-09-30T08:50:12;18.10;99.90
22544;DHT22;11438;52.044;8.716;2023-09-30T08:52:40;18.20;99.90
22544;DHT22;11438;52.044;8.716;2023-09-30T08:55:09;18.20;99.90
22544;DHT22;11438;52.044;8.716;2023-09-30T08:57:40;18.30;99.90
22544;DHT22;11438;52.044;8.716;2023-09-30T09:00:08;18.30;99.90
22544;DHT22;11438;52.044;8.716;2023-09-30T09:02:38;18.40;99.90
22544;DHT22;11438;52.044;8.716;2023-09-30T09:05:04;18.40;99.90
22544;DHT22;11438;52.044;8.716;2023-09-30T09:07:30;18.50;99.90
22544;DHT22;11438;52.044;8.716;2023-09-30T09:10:07;18.50;99.90
22544;DHT22;11438;52.044;8.716;2023-09-30T09:12:35;18.60;99.90
22544;DHT22;11438;52.044;8.716;2023-09-30T09:15:01;18.70;99.90
22544;DHT22;11438;52.044;8.716;2023-09-30T09:17:43;18.70;99.90
22544;DHT22;11438;52.044;8.716;2023-09-30T09:20:16;18.70;99.90
22544;DHT22;11438;52.044;8.716;2023-09-30T09:22:46;18.80;99.90
22544;DHT22;11438;52.044;8.716;2023-09-30T09:25:12;18.80;99.90
22544;DHT22;11438;52.044;8.716;2023-09-30T09:27:38;18.90;99.90
22544;DHT22;11438;52.044;8.716;2023-09-30T09:30:26;18.90;99.90
22544;DHT22;11438;52.044;8.716;2023-09-30T09:35:24;19.00;99.90
22544;DHT22;11438;52.044;8.716;2023-09-30T09:38:00;19.00;99.90
22544;DHT22;11438;52.044;8.716;2023-09-30T09:40:30;19.00;99.90
22544;DHT22;11438;52.044;8.716;2023-09-30T09:42:57;19.10;99.90
22544;DHT22;11438;52.044;8.716;2023-09-30T09:45:25;19.10;99.90
22544;DHT22;11438;52.044;8.716;2023-09-30T09:47:52;19.10;99.90
22544;DHT22;11438;52.044;8.716;2023-09-30T09:50:19;19.20;99.90
22544;DHT22;11438;52.044;8.716;2023-09-30T09:52:52;19.20;99.90
22544;DHT22;11438;52.044;8.716;2023-09-30T09:55:23;19.30;99.90
22544;DHT22;11438;52.044;8.716;2023-09-30T09:57:49;19.30;99.90
22544;DHT22;11438;52.044;8.716;2023-09-30T10:00:19;19.30;99.90
22544;DHT22;11438;52.044;8.716;2023-09-30T10:02:46;19.30;99.90
22544;DHT22;11438;52.044;8.716;2023-09-30T10:05:13;19.40;99.90
22544;DHT22;11438;52.044;8.716;2023-09-30T10:07:51;19.50;99.90
22544;DHT22;11438;52.044;8.716;2023-09-30T10:10:19;19.50;99.90
22544;DHT22;11438;52.044;8.716;2023-09-30T10:12:45;19.60;99.90
22544;DHT22;11438;52.044;8.716;2023-09-30T10:20:31;19.70;99.90
22544;DHT22;11438;52.044;8.716;2023-09-30T10:25:45;19.80;99.90
22544;DHT22;11438;52.044;8.716;2023-09-30T10:31:24;20.00;99.90
22544;DHT22;11438;52.044;8.716;2023-09-30T10:36:36;20.30;99.60
22544;DHT22;11438;52.044;8.716;2023-09-30T10:39:04;20.40;99.20
22544;DHT22;11438;52.044;8.716;2023-09-30T10:46:49;20.60;98.30
22544;DHT22;11438;52.044;8.716;2023-09-30T10:51:54;20.60;97.70
22544;DHT22;11438;52.044;8.716;2023-09-30T10:54:28;20.60;97.60
22544;DHT22;11438;52.044;8.716;2023-09-30T10:56:54;20.70;97.80
22544;DHT22;11438;52.044;8.716;2023-09-30T10:59:21;20.70;97.90
22544;DHT22;11438;52.044;8.716;2023-09-30T11:01:47;20.70;97.90
22544;DHT22;11438;52.044;8.716;2023-09-30T11:04:14;20.70;97.70
22544;DHT22;11438;52.044;8.716;2023-09-30T11:06:41;20.80;97.50
22544;DHT22;11438;52.044;8.716;2023-09-30T11:09:08;20.80;97.10
22544;DHT22;11438;52.044;8.716;2023-09-30T11:11:43;20.90;97.20
22544;DHT22;11438;52.044;8.716;2023-09-30T11:14:23;21.00;97.60
22544;DHT22;11438;52.044;8.716;2023-09-30T11:16:51;21.00;96.90
22544;DHT22;11438;52.044;8.716;2023-09-30T11:19:18;21.10;97.00
22544;DHT22;11438;52.044;8.716;2023-09-30T11:21:49;21.10;97.00
22544;DHT22;11438;52.044;8.716;2023-09-30T11:24:16;21.20;96.90
22544;DHT22;11438;52.044;8.716;2023-09-30T11:26:42;21.20;96.90
22544;DHT22;11438;52.044;8.716;2023-09-30T11:29:14;21.20;97.00
22544;DHT22;11438;52.044;8.716;2023-09-30T11:31:42;21.30;96.50
22544;DHT22;11438;52.044;8.716;2023-09-30T11:34:09;21.30;96.40
22544;DHT22;11438;52.044;8.716;2023-09-30T11:36:40;21.40;96.20
22544;DHT22;11438;52.044;8.716;2023-09-30T11:39:08;21.40;95.90
22544;DHT22;11438;52.044;8.716;2023-09-30T11:41:36;21.40;96.20
22544;DHT22;11438;52.044;8.716;2023-09-30T11:44:09;21.40;96.10
22544;DHT22;11438;52.044;8.716;2023-09-30T11:46:58;21.50;95.80
22544;DHT22;11438;52.044;8.716;2023-09-30T11:49:37;21.50;96.20
22544;DHT22;11438;52.044;8.716;2023-09-30T11:52:08;21.50;95.80
22544;DHT22;11438;52.044;8.716;2023-09-30T11:54:41;21.60;96.50
22544;DHT22;11438;52.044;8.716;2023-09-30T11:57:10;21.60;96.20
22544;DHT22;11438;52.044;8.716;2023-09-30T11:59:36;21.70;96.10
22544;DHT22;11438;52.044;8.716;2023-09-30T12:02:04;21.70;95.30
22544;DHT22;11438;52.044;8.716;2023-09-30T12:04:35;21.80;95.00
22544;DHT22;11438;52.044;8.716;2023-09-30T12:07:01;21.90;95.30
22544;DHT22;11438;52.044;8.716;2023-09-30T12:09:27;22.00;94.90
22544;DHT22;11438;52.044;8.716;2023-09-30T12:11:54;22.00;94.80
22544;DHT22;11438;52.044;8.716;2023-09-30T12:14:20;22.00;94.30
22544;DHT22;11438;52.044;8.716;2023-09-30T12:16:46;22.00;94.50
22544;DHT22;11438;52.044;8.716;2023-09-30T12:19:13;22.10;94.60
22544;DHT22;11438;52.044;8.716;2023-09-30T12:21:39;22.10;94.50
22544;DHT22;11438;52.044;8.716;2023-09-30T12:24:06;22.10;94.50
22544;DHT22;11438;52.044;8.716;2023-09-30T12:26:33;22.10;93.70
22544;DHT22;11438;52.044;8.716;2023-09-30T12:28:59;22.20;93.90
22544;DHT22;11438;52.044;8.716;2023-09-30T12:31:24;22.20;94.10
22544;DHT22;11438;52.044;8.716;2023-09-30T12:33:50;22.20;93.80
22544;DHT22;11438;52.044;8.716;2023-09-30T12:36:21;22.20;94.00
22544;DHT22;11438;52.044;8.716;2023-09-30T12:38:47;22.20;94.00
22544;DHT22;11438;52.044;8.716;2023-09-30T12:41:13;22.30;94.00
22544;DHT22;11438;52.044;8.716;2023-09-30T12:43:38;22.30;93.40
22544;DHT22;11438;52.044;8.716;2023-09-30T12:46:04;22.30;93.10
22544;DHT22;11438;52.044;8.716;2023-09-30T12:48:32;22.30;93.00
22544;DHT22;11438;52.044;8.716;2023-09-30T12:50:59;22.30;92.90
22544;DHT22;11438;52.044;8.716;2023-09-30T12:53:24;22.30;93.00
22544;DHT22;11438;52.044;8.716;2023-09-30T12:55:50;22.30;93.20
22544;DHT22;11438;52.044;8.716;2023-09-30T12:58:15;22.30;93.00
22544;DHT22;11438;52.044;8.716;2023-09-30T13:00:41;22.30;93.20
22544;DHT22;11438;52.044;8.716;2023-09-30T13:03:06;22.30;92.90
22544;DHT22;11438;52.044;8.716;2023-09-30T13:05:33;22.30;92.60
22544;DHT22;11438;52.044;8.716;2023-09-30T13:07:58;22.30;92.30
22544;DHT22;11438;52.044;8.716;2023-09-30T13:10:24;22.30;91.90
22544;DHT22;11438;52.044;8.716;2023-09-30T13:12:51;22.30;92.00
22544;DHT22;11438;52.044;8.716;2023-09-30T13:15:17;22.30;91.80
22544;DHT22;11438;52.044;8.716;2023-09-30T13:17:43;22.30;91.60
22544;DHT22;11438;52.044;8.716;2023-09-30T13:20:09;22.30;91.70
22544;DHT22;11438;52.044;8.716;2023-09-30T13:22:37;22.30;92.00
22544;DHT22;11438;52.044;8.716;2023-09-30T13:25:07;22.30;92.10
22544;DHT22;11438;52.044;8.716;2023-09-30T13:27:38;22.30;92.00
22544;DHT22;11438;52.044;8.716;2023-09-30T13:30:06;22.30;91.30
22544;DHT22;11438;52.044;8.716;2023-09-30T13:32:33;22.40;91.40
22544;DHT22;11438;52.044;8.716;2023-09-30T13:35:04;22.40;90.80
22544;DHT22;11438;52.044;8.716;2023-09-30T13:37:31;22.40;90.70
22544;DHT22;11438;52.044;8.716;2023-09-30T13:39:59;22.50;91.10
22544;DHT22;11438;52.044;8.716;2023-09-30T13:42:25;22.50;91.10
22544;DHT22;11438;52.044;8.716;2023-09-30T13:44:50;22.50;91.10
22544;DHT22;11438;52.044;8.716;2023-09-30T13:47:16;22.50;90.80
22544;DHT22;11438;52.044;8.716;2023-09-30T13:49:42;22.50;90.40
22544;DHT22;11438;52.044;8.716;2023-09-30T13:52:07;22.60;91.10
22544;DHT22;11438;52.044;8.716;2023-09-30T13:54:33;22.60;90.80
22544;DHT22;11438;52.044;8.716;2023-09-30T13:56:58;22.60;90.30
22544;DHT22;11438;52.044;8.716;2023-09-30T13:59:24;22.60;90.60
22544;DHT22;11438;52.044;8.716;2023-09-30T14:01:50;22.60;90.60
22544;DHT22;11438;52.044;8.716;2023-09-30T14:04:15;22.60;90.40
22544;DHT22;11438;52.044;8.716;2023-09-30T14:06:42;22.60;90.20
22544;DHT22;11438;52.044;8.716;2023-09-30T14:09:07;22.60;90.10
22544;DHT22;11438;52.044;8.716;2023-09-30T14:11:40;22.60;90.00
22544;DHT22;11438;52.044;8.716;2023-09-30T14:14:06;22.70;90.10
22544;DHT22;11438;52.044;8.716;2023-09-30T14:16:37;22.70;89.30
22544;DHT22;11438;52.044;8.716;2023-09-30T14:19:03;22.70;89.30
22544;DHT22;11438;52.044;8.716;2023-09-30T14:21:29;22.70;89.30
22544;DHT22;11438;52.044;8.716;2023-09-30T14:23:54;22.70;89.60
22544;DHT22;11438;52.044;8.716;2023-09-30T14:26:20;22.70;89.70
22544;DHT22;11438;52.044;8.716;2023-09-30T14:28:45;22.70;89.70
22544;DHT22;11438;52.044;8.716;2023-09-30T14:31:11;22.70;89.70
22544;DHT22;11438;52.044;8.716;2023-09-30T14:33:37;22.70;89.80
22544;DHT22;11438;52.044;8.716;2023-09-30T14:36:03;22.70;89.70
22544;DHT22;11438;52.044;8.716;2023-09-30T14:38:33;22.80;90.00
22544;DHT22;11438;52.044;8.716;2023-09-30T14:40:58;22.80;90.10
22544;DHT22;11438;52.044;8.716;2023-09-30T14:43:24;22.80;90.10
22544;DHT22;11438;52.044;8.716;2023-09-30T14:45:50;22.80;89.00
22544;DHT22;11438;52.044;8.716;2023-09-30T14:48:15;22.80;88.10
22544;DHT22;11438;52.044;8.716;2023-09-30T14:50:49;22.80;88.60
22544;DHT22;11438;52.044;8.716;2023-09-30T14:53:15;22.80;88.20
22544;DHT22;11438;52.044;8.716;2023-09-30T14:55:41;22.90;88.50
22544;DHT22;11438;52.044;8.716;2023-09-30T14:58:07;22.90;87.80
22544;DHT22;11438;52.044;8.716;2023-09-30T15:00:33;22.80;87.50
22544;DHT22;11438;52.044;8.716;2023-09-30T15:02:58;22.80;85.90
22544;DHT22;11438;52.044;8.716;2023-09-30T15:05:24;22.80;86.00
22544;DHT22;11438;52.044;8.716;2023-09-30T15:07:49;22.80;86.70
22544;DHT22;11438;52.044;8.716;2023-09-30T15:10:16;22.70;87.60
22544;DHT22;11438;52.044;8.716;2023-09-30T15:12:41;22.70;87.60
22544;DHT22;11438;52.044;8.716;2023-09-30T15:15:07;22.70;87.30
22544;DHT22;11438;52.044;8.716;2023-09-30T15:17:34;22.70;87.30
22544;DHT22;11438;52.044;8.716;2023-09-30T15:20:00;22.70;86.90
22544;DHT22;11438;52.044;8.716;2023-09-30T15:22:26;22.70;87.00
22544;DHT22;11438;52.044;8.716;2023-09-30T15:24:51;22.70;87.10
22544;DHT22;11438;52.044;8.716;2023-09-30T15:27:17;22.70;87.10
22544;DHT22;11438;52.044;8.716;2023-09-30T15:29:44;22.70;86.60
22544;DHT22;11438;52.044;8.716;2023-09-30T15:32:09;22.70;86.50
22544;DHT22;11438;52.044;8.716;2023-09-30T15:34:38;22.70;86.40
22544;DHT22;11438;52.044;8.716;2023-09-30T15:37:06;22.60;86.50
22544;DHT22;11438;52.044;8.716;2023-09-30T15:39:39;22.60;86.60
22544;DHT22;11438;52.044;8.716;2023-09-30T15:42:06;22.60;86.50
22544;DHT22;11438;52.044;8.716;2023-09-30T15:44:31;22.60;86.60
22544;DHT22;11438;52.044;8.716;2023-09-30T15:46:57;22.60;87.10
22544;DHT22;11438;52.044;8.716;2023-09-30T15:49:23;22.50;87.00
22544;DHT22;11438;52.044;8.716;2023-09-30T15:51:48;22.50;86.90
22544;DHT22;11438;52.044;8.716;2023-09-30T15:54:14;22.50;87.40